createdAt,value
2022-08-07T00:02:41.301Z,17.38
2022-08-07T00:05:06.447Z,17.73
2022-08-07T00:07:40.562Z,16.75
2022-08-07T00:10:26.516Z,16.40
2022-08-07T00:13:01.434Z,16.13
2022-08-07T00:15:38.096Z,15.79
2022-08-07T00:18:19.378Z,15.92
2022-08-07T00:20:50.534Z,16.36
2022-08-07T00:23:21.382Z,15.80
2022-08-07T00:25:58.136Z,15.65
2022-08-07T00:28:31.615Z,15.50
2022-08-07T00:31:12.377Z,15.38
2022-08-07T00:33:42.510Z,15.32
2022-08-07T00:36:12.949Z,15.33
2022-08-07T00:38:42.030Z,15.22
2022-08-07T00:41:14.742Z,15.21
2022-08-07T00:44:02.024Z,15.13
2022-08-07T00:46:32.986Z,15.08
2022-08-07T00:49:03.611Z,15.03
2022-08-07T00:51:56.541Z,14.96
2022-08-07T00:54:23.069Z,14.89
2022-08-07T00:56:53.231Z,14.85
2022-08-07T00:59:35.129Z,14.85
2022-08-07T01:02:09.001Z,14.77
2022-08-07T01:04:43.995Z,14.75
2022-08-07T01:07:15.120Z,14.77
2022-08-07T01:10:04.991Z,14.66
2022-08-07T01:12:33.354Z,14.64
2022-08-07T01:15:03.898Z,14.56
2022-08-07T01:17:34.595Z,14.48
2022-08-07T01:20:10.342Z,14.44
2022-08-07T01:23:00.805Z,14.48
2022-08-07T01:25:54.579Z,14.35
2022-08-07T01:28:25.905Z,14.29
2022-08-07T01:31:01.826Z,14.22
2022-08-07T01:33:55.974Z,14.08
2022-08-07T01:36:33.839Z,14.03
2022-08-07T01:39:12.093Z,13.97
2022-08-07T01:42:07.232Z,13.97
2022-08-07T01:44:38.902Z,13.95
2022-08-07T01:47:14.296Z,13.93
2022-08-07T01:49:57.500Z,14.07
2022-08-07T01:52:34.139Z,14.08
2022-08-07T01:55:06.064Z,13.87
2022-08-07T01:58:06.971Z,13.74
2022-08-07T02:00:45.247Z,13.59
2022-08-07T02:03:32.062Z,13.47
2022-08-07T02:06:31.615Z,13.44
2022-08-07T02:09:07.032Z,13.43
2022-08-07T02:12:03.629Z,13.41
2022-08-07T02:14:40.752Z,13.34
2022-08-07T02:17:27.427Z,13.28
2022-08-07T02:20:05.660Z,13.26
2022-08-07T02:22:41.430Z,13.26
2022-08-07T02:25:17.715Z,13.21
2022-08-07T02:28:01.580Z,13.21
2022-08-07T02:30:37.778Z,13.21
2022-08-07T02:33:10.642Z,13.26
2022-08-07T02:36:29.619Z,13.19
2022-08-07T02:38:39.526Z,13.21
2022-08-07T02:41:22.113Z,13.16
2022-08-07T02:43:57.421Z,13.05
2022-08-07T02:46:32.778Z,12.93
2022-08-07T02:49:03.173Z,12.95
2022-08-07T02:51:49.722Z,12.96
2022-08-07T02:54:26.959Z,12.96
2022-08-07T02:57:02.398Z,12.87
2022-08-07T02:59:37.739Z,12.75
2022-08-07T03:02:10.691Z,12.70
2022-08-07T03:04:42.745Z,12.62
2022-08-07T03:07:18.956Z,12.56
2022-08-07T03:10:10.075Z,12.55
2022-08-07T03:12:45.539Z,12.58
2022-08-07T03:15:30.314Z,12.58
2022-08-07T03:18:10.572Z,12.61
2022-08-07T03:20:47.843Z,12.69
2022-08-07T03:23:19.522Z,12.62
2022-08-07T03:25:50.801Z,12.60
2022-08-07T03:28:38.162Z,12.78
2022-08-07T03:31:24.470Z,12.70
2022-08-07T03:34:02.377Z,12.54
2022-08-07T03:36:37.380Z,12.53
2022-08-07T03:39:12.735Z,12.53
2022-08-07T03:41:47.638Z,12.67
2022-08-07T03:44:21.581Z,12.66
2022-08-07T03:47:11.300Z,12.58
2022-08-07T03:49:51.921Z,12.68
2022-08-07T03:52:27.964Z,12.75
2022-08-07T03:55:06.789Z,12.80
2022-08-07T03:59:05.042Z,13.04
2022-08-07T04:00:38.118Z,13.13
2022-08-07T04:03:16.903Z,13.18
2022-08-07T04:05:47.441Z,13.20
2022-08-07T04:08:23.675Z,13.08
2022-08-07T04:12:21.160Z,13.07
2022-08-07T04:14:10.806Z,13.05
2022-08-07T04:16:38.234Z,13.26
2022-08-07T04:19:15.066Z,13.19
2022-08-07T04:22:04.851Z,13.16
2022-08-07T04:24:42.535Z,13.36
2022-08-07T04:27:20.321Z,13.42
2022-08-07T04:30:01.127Z,13.35
2022-08-07T04:32:40.406Z,13.36
2022-08-07T04:35:16.082Z,13.47
2022-08-07T04:38:03.951Z,13.77
2022-08-07T04:40:35.549Z,13.90
2022-08-07T04:43:15.652Z,14.41
2022-08-07T04:46:01.147Z,14.33
2022-08-07T04:48:46.334Z,14.07
2022-08-07T04:51:34.216Z,14.19
2022-08-07T04:54:18.868Z,14.53
2022-08-07T04:58:14.030Z,14.38
2022-08-07T05:00:12.344Z,14.37
2022-08-07T05:02:57.045Z,15.21
2022-08-07T05:05:52.586Z,15.22
2022-08-07T05:08:59.307Z,16.13
2022-08-07T05:11:57.510Z,15.25
2022-08-07T05:14:53.825Z,15.02
2022-08-07T05:17:50.794Z,14.99
2022-08-07T05:20:18.883Z,15.31
2022-08-07T05:22:52.899Z,15.56
2022-08-07T05:26:11.168Z,15.97
2022-08-07T05:28:23.078Z,16.57
2022-08-07T05:30:58.467Z,16.52
2022-08-07T05:33:31.439Z,17.39
2022-08-07T05:36:12.213Z,16.64
2022-08-07T05:38:59.451Z,16.29
2022-08-07T05:42:01.586Z,17.16
2022-08-07T05:44:36.304Z,17.84
2022-08-07T05:47:17.915Z,17.37
2022-08-07T05:49:54.366Z,17.07
2022-08-07T05:52:32.405Z,18.15
2022-08-07T05:55:10.472Z,18.63
2022-08-07T05:57:46.520Z,18.15
2022-08-07T06:00:18.672Z,17.53
2022-08-07T06:03:00.874Z,18.07
2022-08-07T06:05:31.869Z,17.55
2022-08-07T06:08:29.389Z,18.14
2022-08-07T06:11:00.184Z,18.36
2022-08-07T06:14:12.853Z,19.09
2022-08-07T06:16:29.309Z,18.96
2022-08-07T06:19:01.430Z,18.63
2022-08-07T06:22:16.206Z,19.20
2022-08-07T06:24:45.455Z,18.69
2022-08-07T06:27:10.013Z,18.93
2022-08-07T06:29:40.130Z,19.26
2022-08-07T06:32:10.204Z,17.77
2022-08-07T06:34:45.161Z,17.98
2022-08-07T06:37:17.003Z,18.65
2022-08-07T06:40:16.130Z,18.95
2022-08-07T06:42:39.177Z,19.16
2022-08-07T06:45:33.354Z,18.57
2022-08-07T06:48:06.661Z,19.57
2022-08-07T06:50:47.650Z,18.40
2022-08-07T06:55:29.255Z,19.39
2022-08-07T06:56:16.121Z,19.55
2022-08-07T07:00:13.371Z,19.72
2022-08-07T07:01:50.597Z,19.78
2022-08-07T07:04:32.389Z,20.23
2022-08-07T07:07:18.789Z,20.97
2022-08-07T07:09:50.964Z,21.76
2022-08-07T07:12:33.614Z,20.59
2022-08-07T07:15:26.247Z,22.05
2022-08-07T07:18:08.671Z,22.36
2022-08-07T07:20:43.340Z,22.71
2022-08-07T07:24:09.091Z,23.23
2022-08-07T07:26:35.523Z,22.95
2022-08-07T07:29:38.487Z,22.40
2022-08-07T07:31:58.133Z,22.33
2022-08-07T07:34:34.371Z,22.66
2022-08-07T07:37:22.203Z,22.12
2022-08-07T07:40:03.656Z,23.12
2022-08-07T07:42:41.865Z,24.05
2022-08-07T07:45:13.961Z,24.98
2022-08-07T07:47:52.616Z,26.05
2022-08-07T07:50:35.101Z,26.46
2022-08-07T07:53:20.119Z,26.71
2022-08-07T07:56:00.689Z,27.59
2022-08-07T07:58:37.109Z,29.29
2022-08-07T08:02:03.603Z,29.77
2022-08-07T08:04:11.690Z,28.20
2022-08-07T08:06:50.589Z,28.95
2022-08-07T08:09:29.296Z,29.25
2022-08-07T08:12:05.159Z,28.02
2022-08-07T08:14:36.097Z,28.26
2022-08-07T08:17:48.367Z,27.69
2022-08-07T08:20:22.173Z,25.84
2022-08-07T08:23:15.489Z,26.44
2022-08-07T08:26:07.195Z,27.51
2022-08-07T08:28:44.741Z,26.30
2022-08-07T08:31:30.198Z,28.44
2022-08-07T08:34:26.658Z,27.96
2022-08-07T08:36:58.603Z,26.39
2022-08-07T08:39:39.273Z,29.15
2022-08-07T08:42:28.218Z,29.17
2022-08-07T08:45:13.431Z,29.76
2022-08-07T08:47:57.074Z,30.34
2022-08-07T08:50:39.183Z,30.15
2022-08-07T08:53:20.397Z,28.19
2022-08-07T08:55:58.586Z,30.00
2022-08-07T08:58:37.555Z,30.20
2022-08-07T09:01:18.377Z,29.88
2022-08-07T09:03:59.673Z,29.24
2022-08-07T09:06:42.868Z,27.18
2022-08-07T09:09:48.191Z,25.12
2022-08-07T09:12:53.674Z,27.11
2022-08-07T09:16:25.379Z,28.25
2022-08-07T09:19:07.026Z,25.98
2022-08-07T09:24:29.106Z,30.61
2022-08-07T09:25:14.859Z,28.72
2022-08-07T09:28:03.166Z,30.92
2022-08-07T09:31:03.035Z,27.43
2022-08-07T09:34:09.447Z,26.55
2022-08-07T09:36:46.715Z,29.38
2022-08-07T09:39:54.597Z,31.26
2022-08-07T09:42:47.801Z,31.54
2022-08-07T09:47:51.623Z,30.50
2022-08-07T09:48:56.137Z,30.00
2022-08-07T09:52:16.072Z,32.01
2022-08-07T09:54:55.544Z,30.73
2022-08-07T09:58:03.004Z,31.85
2022-08-07T10:00:54.051Z,30.90
2022-08-07T10:04:03.270Z,31.76
2022-08-07T10:07:31.487Z,28.45
2022-08-07T10:10:21.994Z,29.50
2022-08-07T10:13:29.656Z,29.63
2022-08-07T10:16:23.324Z,29.00
2022-08-07T10:19:37.647Z,29.67
2022-08-07T10:23:00.443Z,32.16
2022-08-07T10:25:58.929Z,30.86
2022-08-07T10:29:00.058Z,28.70
2022-08-07T10:32:01.000Z,25.00
2022-08-07T10:34:48.611Z,26.22
2022-08-07T10:38:00.094Z,28.28
2022-08-07T10:40:38.771Z,27.60
2022-08-07T10:43:19.256Z,27.85
2022-08-07T10:45:57.984Z,27.67
2022-08-07T10:48:44.301Z,27.40
2022-08-07T10:51:57.598Z,27.29
2022-08-07T10:54:22.666Z,27.76
2022-08-07T10:57:10.773Z,27.45
2022-08-07T11:00:03.521Z,25.77
2022-08-07T11:02:49.217Z,26.09
2022-08-07T11:05:50.466Z,26.18
2022-08-07T11:08:33.403Z,27.63
2022-08-07T11:11:10.247Z,26.05
2022-08-07T11:14:44.866Z,26.09
2022-08-07T11:16:49.340Z,26.62
2022-08-07T11:19:36.995Z,26.60
2022-08-07T11:22:19.139Z,26.95
2022-08-07T11:25:10.376Z,26.93
2022-08-07T11:28:01.369Z,27.17
2022-08-07T11:30:44.249Z,26.41
2022-08-07T11:33:54.116Z,25.74
2022-08-07T11:36:40.579Z,25.20
2022-08-07T11:39:39.862Z,25.28
2022-08-07T11:42:44.721Z,24.66
2022-08-07T11:45:35.924Z,23.75
2022-08-07T11:48:58.777Z,23.36
2022-08-07T11:51:52.352Z,23.54
2022-08-07T11:54:59.565Z,23.22
2022-08-07T11:57:59.360Z,23.39
2022-08-07T12:00:48.962Z,23.60
2022-08-07T12:04:32.770Z,23.69
2022-08-07T12:07:09.080Z,23.97
2022-08-07T12:10:02.208Z,24.12
2022-08-07T12:12:41.487Z,23.71
2022-08-07T12:15:46.090Z,22.66
2022-08-07T12:18:29.622Z,22.77
2022-08-07T12:21:21.165Z,22.57
2022-08-07T12:24:37.898Z,22.74
2022-08-07T12:27:16.518Z,22.95
2022-08-07T12:29:54.941Z,22.25
2022-08-07T12:32:35.645Z,22.93
2022-08-07T12:35:08.436Z,22.22
2022-08-07T12:38:10.353Z,22.08
2022-08-07T12:40:47.236Z,22.90
2022-08-07T12:44:01.361Z,23.46
2022-08-07T12:46:34.602Z,23.76
2022-08-07T12:49:25.392Z,23.14
2022-08-07T12:52:17.177Z,22.28
2022-08-07T12:55:05.122Z,23.56
2022-08-07T12:58:00.437Z,22.37
2022-08-07T13:00:57.227Z,22.04
2022-08-07T13:04:02.409Z,22.17
2022-08-07T13:07:01.137Z,22.00
2022-08-07T13:10:28.630Z,21.85
2022-08-07T13:13:02.570Z,22.44
2022-08-07T13:15:47.638Z,22.16
2022-08-07T13:18:44.610Z,23.86
2022-08-07T13:21:37.757Z,23.71
2022-08-07T13:24:29.141Z,23.34
2022-08-07T13:27:14.505Z,24.39
2022-08-07T13:29:58.916Z,24.14
2022-08-07T13:32:45.906Z,23.97
2022-08-07T13:35:59.762Z,24.26
2022-08-07T13:38:24.520Z,24.39
2022-08-07T13:41:22.292Z,23.88
2022-08-07T13:43:57.428Z,23.60
2022-08-07T13:46:36.568Z,23.80
2022-08-07T13:50:34.239Z,23.44
2022-08-07T13:52:30.467Z,23.31
2022-08-07T13:54:59.015Z,22.81
2022-08-07T13:57:37.795Z,22.57
2022-08-07T14:00:26.331Z,23.36
2022-08-07T14:03:00.025Z,23.89
2022-08-07T14:05:38.309Z,23.40
2022-08-07T14:08:10.329Z,23.66
2022-08-07T14:10:43.727Z,23.96
2022-08-07T14:13:21.840Z,23.64
2022-08-07T14:16:15.159Z,24.14
2022-08-07T14:18:57.218Z,24.66
2022-08-07T14:22:04.316Z,24.17
2022-08-07T14:24:33.523Z,24.86
2022-08-07T14:28:09.263Z,24.63
2022-08-07T14:30:07.162Z,24.68
2022-08-07T14:32:46.046Z,23.42
2022-08-07T14:35:43.265Z,24.51
2022-08-07T14:38:30.230Z,24.15
2022-08-07T14:41:04.364Z,23.90
2022-08-07T14:43:55.447Z,23.92
2022-08-07T14:46:32.358Z,24.32
2022-08-07T14:49:17.525Z,23.97
2022-08-07T14:52:04.632Z,23.57
2022-08-07T14:54:44.847Z,24.03
2022-08-07T15:00:08.796Z,23.82
2022-08-07T15:05:30.175Z,24.05
2022-08-07T15:08:00.184Z,24.52
2022-08-07T15:10:30.749Z,23.68
2022-08-07T15:13:11.415Z,23.56
2022-08-07T15:15:52.698Z,22.89
2022-08-07T15:18:35.600Z,22.75
2022-08-07T15:21:44.356Z,23.12
2022-08-07T15:25:15.651Z,23.09
2022-08-07T15:27:11.256Z,22.96
2022-08-07T15:30:04.880Z,23.06
2022-08-07T15:36:01.765Z,23.23
2022-08-07T15:38:18.212Z,23.78
2022-08-07T15:41:24.278Z,24.23
2022-08-07T15:44:04.545Z,24.13
2022-08-07T15:46:47.395Z,24.82
2022-08-07T15:50:05.634Z,24.68
2022-08-07T15:52:30.812Z,24.27
2022-08-07T15:55:03.735Z,24.36
2022-08-07T15:57:47.942Z,23.51
2022-08-07T16:00:33.609Z,24.07
2022-08-07T16:03:23.980Z,24.35
2022-08-07T16:06:12.453Z,23.77
2022-08-07T16:08:45.824Z,24.47
2022-08-07T16:11:40.205Z,24.38
2022-08-07T16:14:19.373Z,24.27
2022-08-07T16:17:15.089Z,24.78
2022-08-07T16:20:39.555Z,24.75
2022-08-07T16:23:54.757Z,24.94
2022-08-07T16:26:59.272Z,24.97
2022-08-07T16:30:09.892Z,26.15
2022-08-07T16:32:54.664Z,26.81
2022-08-07T16:35:52.324Z,26.47
2022-08-07T16:39:00.924Z,25.68
2022-08-07T16:42:25.075Z,24.34
2022-08-07T16:46:40.520Z,24.39
2022-08-07T16:48:58.532Z,23.32
2022-08-07T16:52:06.374Z,22.70
2022-08-07T16:55:11.506Z,22.09
2022-08-07T16:58:03.449Z,22.02
2022-08-07T17:00:43.248Z,21.87
2022-08-07T17:03:47.342Z,21.48
2022-08-07T17:06:45.882Z,22.15
2022-08-07T17:10:06.724Z,21.71
2022-08-07T17:12:35.731Z,21.45
2022-08-07T17:15:20.231Z,21.08
2022-08-07T17:18:12.732Z,21.26
2022-08-07T17:20:46.450Z,21.05
2022-08-07T17:23:41.752Z,20.67
2022-08-07T17:26:23.397Z,20.47
2022-08-07T17:29:09.681Z,20.35
2022-08-07T17:32:30.291Z,20.11
2022-08-07T17:35:51.368Z,20.00
2022-08-07T17:38:33.657Z,20.00
2022-08-07T17:42:02.295Z,19.86
2022-08-07T17:44:13.663Z,19.69
2022-08-07T17:46:55.842Z,19.58
2022-08-07T17:49:44.417Z,19.51
2022-08-07T17:52:30.613Z,19.40
2022-08-07T17:55:12.707Z,19.30
2022-08-07T17:58:02.100Z,19.20
2022-08-07T18:00:48.794Z,19.18
2022-08-07T18:03:28.746Z,19.20
2022-08-07T18:06:36.956Z,18.96
2022-08-07T18:09:08.949Z,18.80
2022-08-07T18:12:17.384Z,18.67
2022-08-07T18:14:50.841Z,18.62
2022-08-07T18:18:44.694Z,18.54
2022-08-07T18:21:04.330Z,18.43
2022-08-07T18:23:42.347Z,18.35
2022-08-07T18:26:22.578Z,18.21
2022-08-07T18:30:07.452Z,18.15
2022-08-07T18:32:31.539Z,18.13
2022-08-07T18:35:21.618Z,18.00
2022-08-07T18:38:59.366Z,18.04
2022-08-07T18:41:20.647Z,17.99
2022-08-07T18:43:59.176Z,18.00
2022-08-07T18:46:43.014Z,17.74
2022-08-07T18:50:19.055Z,17.69
2022-08-07T18:52:54.145Z,17.67
2022-08-07T18:55:41.669Z,17.49
2022-08-07T18:58:33.022Z,17.41
2022-08-07T19:02:19.190Z,17.36
2022-08-07T19:04:28.166Z,17.27
2022-08-07T19:07:10.762Z,17.20
2022-08-07T19:09:56.659Z,17.16
2022-08-07T19:12:57.780Z,17.10
2022-08-07T19:16:05.382Z,17.06
2022-08-07T19:18:46.469Z,17.04
2022-08-07T19:21:44.922Z,16.97
2022-08-07T19:24:30.824Z,16.93
2022-08-07T19:28:30.033Z,16.98
2022-08-07T19:30:57.312Z,16.87
2022-08-07T19:32:59.790Z,16.77
2022-08-07T19:35:33.743Z,16.71
2022-08-07T19:38:16.104Z,16.72
2022-08-07T19:40:51.428Z,16.64
2022-08-07T19:43:49.218Z,16.61
2022-08-07T19:46:18.909Z,16.53
2022-08-07T19:48:57.167Z,16.51
2022-08-07T19:51:50.839Z,16.43
2022-08-07T19:54:33.334Z,16.35
2022-08-07T19:58:03.416Z,16.32
2022-08-07T20:00:12.514Z,16.26
2022-08-07T20:03:04.825Z,16.22
2022-08-07T20:06:02.172Z,16.12
2022-08-07T20:08:34.923Z,16.06
2022-08-07T20:11:10.789Z,16.01
2022-08-07T20:13:47.495Z,15.95
2022-08-07T20:16:34.747Z,15.88
2022-08-07T20:19:10.211Z,15.86
2022-08-07T20:21:47.564Z,15.85
2022-08-07T20:24:22.829Z,15.87
2022-08-07T20:26:57.116Z,15.78
2022-08-07T20:29:47.951Z,15.75
2022-08-07T20:32:25.557Z,15.66
2022-08-07T20:35:01.090Z,15.65
2022-08-07T20:37:46.725Z,15.58
2022-08-07T20:40:32.453Z,15.53
2022-08-07T20:43:14.732Z,15.78
2022-08-07T20:46:24.678Z,15.52
2022-08-07T20:49:54.119Z,15.41
2022-08-07T20:51:49.186Z,15.40
2022-08-07T20:54:30.073Z,15.32
2022-08-07T20:57:08.407Z,15.45
2022-08-07T21:00:06.935Z,15.37
2022-08-07T21:02:55.475Z,15.31
2022-08-07T21:05:50.584Z,15.24
2022-08-07T21:08:36.798Z,15.14
2022-08-07T21:11:14.381Z,15.07
2022-08-07T21:14:16.387Z,15.10
2022-08-07T21:17:06.459Z,15.10
2022-08-07T21:19:50.713Z,15.06
2022-08-07T21:22:28.417Z,15.07
2022-08-07T21:25:13.353Z,15.13
2022-08-07T21:28:06.703Z,14.93
2022-08-07T21:30:55.255Z,14.89
2022-08-07T21:33:41.123Z,14.87
2022-08-07T21:36:32.404Z,14.84
2022-08-07T21:39:47.934Z,14.76
2022-08-07T21:42:41.912Z,14.67
2022-08-07T21:46:07.807Z,14.67
2022-08-07T21:48:28.894Z,14.66
2022-08-07T21:51:20.401Z,14.67
2022-08-07T21:54:02.187Z,14.64
2022-08-07T21:56:49.050Z,14.71
2022-08-07T21:59:36.234Z,14.72
2022-08-07T22:02:34.528Z,14.91
2022-08-07T22:05:06.990Z,14.94
2022-08-07T22:07:58.364Z,14.95
2022-08-07T22:10:35.413Z,14.67
2022-08-07T22:13:13.642Z,14.52
2022-08-07T22:16:38.395Z,14.50
2022-08-07T22:18:55.710Z,14.44
2022-08-07T22:22:01.960Z,14.46
2022-08-07T22:24:35.384Z,14.38
2022-08-07T22:27:17.927Z,14.33
2022-08-07T22:29:57.593Z,14.30
2022-08-07T22:32:42.375Z,14.26
2022-08-07T22:35:13.944Z,14.20
2022-08-07T22:38:01.984Z,14.24
2022-08-07T22:40:53.488Z,14.24
2022-08-07T22:43:34.112Z,14.22
2022-08-07T22:47:06.141Z,14.14
2022-08-07T22:50:20.626Z,14.10
2022-08-07T22:53:17.918Z,14.09
2022-08-07T22:56:01.185Z,14.09
2022-08-07T22:59:14.535Z,14.08
2022-08-07T23:02:10.449Z,14.07
2022-08-07T23:06:08.404Z,14.00
2022-08-07T23:08:23.996Z,13.98
2022-08-07T23:11:16.219Z,13.98
2022-08-07T23:14:16.620Z,13.94
2022-08-07T23:17:15.603Z,13.92
2022-08-07T23:20:51.675Z,13.91
2022-08-07T23:24:04.525Z,13.84
2022-08-07T23:27:03.358Z,13.77
2022-08-07T23:30:38.439Z,13.74
2022-08-07T23:34:36.660Z,13.64
2022-08-07T23:36:17.149Z,13.59
2022-08-07T23:39:13.653Z,13.61
2022-08-07T23:42:15.665Z,13.61
2022-08-07T23:46:01.539Z,13.61
2022-08-07T23:48:34.587Z,13.58
2022-08-07T23:53:05.949Z,13.54
2022-08-07T23:54:44.177Z,13.47
2022-08-07T23:57:24.419Z,13.47
